GTI4436 KSAN-KPDX
Flight info
| Callsign | GTI4436 |
|---|---|
| Flight time | 1h 58m |
| Altitude | 34000 |
| Route | PADRZ2 EHF DNOLD GALLO TMBRS4 |
| Aircraft | B77L/H-SDE1E2E3FGHIJ2J3J4J5M1RWXY/LB1D1 |
Departure
| Time | 2026-05-05 01:35 |
|---|---|
| Airport | San Diego International Airport (KSAN) |
Arrival
| Time | 2026-05-05 03:33 |
|---|---|
| Airport | Portland International Airport (KPDX) |
| Time | Latitude | Longitude | Altitude | Speed | Heading |
|---|---|---|---|---|---|
| 2026-05-05 01:14 | 32.73518 | -117.18366 | 26 ft | 0 kts | 52° |
| 2026-05-05 01:26 | 32.73513 | -117.18373 | 32 ft | 2 kts | 56° |
| 2026-05-05 01:26 | 32.73505 | -117.18389 | 32 ft | 2 kts | 63° |
| 2026-05-05 01:27 | 32.73498 | -117.18407 | 32 ft | 2 kts | 79° |
| 2026-05-05 01:27 | 32.73498 | -117.18427 | 32 ft | 2 kts | 111° |
| 2026-05-05 01:27 | 32.73507 | -117.18443 | 32 ft | 2 kts | 138° |
| 2026-05-05 01:27 | 32.73513 | -117.18449 | 32 ft | 0 kts | 143° |
| 2026-05-05 01:28 | 32.73514 | -117.18450 | 32 ft | 0 kts | 143° |
| 2026-05-05 01:30 | 32.73512 | -117.18448 | 32 ft | 1 kts | 143° |
| 2026-05-05 01:30 | 32.73494 | -117.18433 | 32 ft | 4 kts | 144° |
| 2026-05-05 01:30 | 32.73472 | -117.18414 | 32 ft | 4 kts | 144° |
| 2026-05-05 01:30 | 32.73450 | -117.18396 | 29 ft | 4 kts | 148° |
| 2026-05-05 01:31 | 32.73424 | -117.18388 | 29 ft | 4 kts | 178° |
| 2026-05-05 01:31 | 32.73409 | -117.18391 | 30 ft | 0 kts | 194° |
| 2026-05-05 01:31 | 32.73390 | -117.18397 | 30 ft | 5 kts | 194° |
| 2026-05-05 01:32 | 32.73349 | -117.18398 | 29 ft | 7 kts | 159° |
| 2026-05-05 01:32 | 32.73320 | -117.18343 | 31 ft | 10 kts | 108° |
| 2026-05-05 01:32 | 32.73298 | -117.18255 | 29 ft | 13 kts | 106° |
| 2026-05-05 01:32 | 32.73272 | -117.18148 | 29 ft | 14 kts | 106° |
| 2026-05-05 01:33 | 32.73242 | -117.18027 | 27 ft | 17 kts | 106° |
| 2026-05-05 01:33 | 32.73207 | -117.17882 | 24 ft | 19 kts | 106° |
| 2026-05-05 01:33 | 32.73172 | -117.17732 | 29 ft | 19 kts | 106° |
| 2026-05-05 01:33 | 32.73140 | -117.17604 | 27 ft | 12 kts | 108° |
| 2026-05-05 01:34 | 32.73083 | -117.17538 | 28 ft | 12 kts | 152° |
| 2026-05-05 01:34 | 32.73017 | -117.17552 | 29 ft | 8 kts | 253° |
| 2026-05-05 01:34 | 32.73022 | -117.17581 | 27 ft | 0 kts | 286° |
| 2026-05-05 01:34 | 32.73027 | -117.17603 | 28 ft | 21 kts | 286° |
| 2026-05-05 01:35 | 32.73140 | -117.18076 | 23 ft | 95 kts | 285° |
| 2026-05-05 01:35 | 32.73382 | -117.19070 | 30 ft | 154 kts | 286° |
| 2026-05-05 01:35 | 32.73713 | -117.20406 | 329 ft | 172 kts | 285° |
| 2026-05-05 01:35 | 32.74103 | -117.21780 | 810 ft | 180 kts | 296° |
| 2026-05-05 01:36 | 32.74839 | -117.23002 | 1293 ft | 188 kts | 304° |
| 2026-05-05 01:36 | 32.75646 | -117.24346 | 1531 ft | 213 kts | 301° |
| 2026-05-05 01:36 | 32.76527 | -117.25892 | 1925 ft | 236 kts | 302° |
| 2026-05-05 01:36 | 32.77473 | -117.27544 | 2597 ft | 247 kts | 302° |
| 2026-05-05 01:37 | 32.78458 | -117.29259 | 3408 ft | 253 kts | 302° |
| 2026-05-05 01:37 | 32.79452 | -117.30990 | 4344 ft | 253 kts | 302° |
| 2026-05-05 01:37 | 32.80470 | -117.32695 | 5289 ft | 254 kts | 305° |
| 2026-05-05 01:37 | 32.81554 | -117.34375 | 6114 ft | 258 kts | 306° |
| 2026-05-05 01:38 | 32.82665 | -117.36075 | 6923 ft | 262 kts | 306° |
| 2026-05-05 01:38 | 32.83796 | -117.37811 | 7685 ft | 267 kts | 305° |
| 2026-05-05 01:38 | 32.84936 | -117.39567 | 8484 ft | 270 kts | 304° |
| 2026-05-05 01:38 | 32.86072 | -117.41322 | 9268 ft | 273 kts | 304° |
| 2026-05-05 01:39 | 32.87238 | -117.43129 | 10032 ft | 277 kts | 303° |
| 2026-05-05 01:39 | 32.88434 | -117.44986 | 10534 ft | 292 kts | 303° |
| 2026-05-05 01:39 | 32.89721 | -117.46993 | 10715 ft | 317 kts | 303° |
| 2026-05-05 01:39 | 32.91120 | -117.49172 | 10914 ft | 343 kts | 303° |
| 2026-05-05 01:40 | 32.92607 | -117.51486 | 11347 ft | 358 kts | 303° |
| 2026-05-05 01:40 | 32.94143 | -117.53871 | 12042 ft | 367 kts | 303° |
| 2026-05-05 01:40 | 32.95707 | -117.56304 | 12884 ft | 373 kts | 303° |
| 2026-05-05 01:40 | 32.96756 | -117.57939 | 13478 ft | 375 kts | 303° |
| 2026-05-05 01:41 | 32.98873 | -117.61241 | 14549 ft | 381 kts | 302° |
| 2026-05-05 01:41 | 33.00490 | -117.63766 | 15321 ft | 386 kts | 303° |
| 2026-05-05 01:41 | 33.02130 | -117.66329 | 16040 ft | 392 kts | 303° |
| 2026-05-05 01:41 | 33.03793 | -117.68928 | 16769 ft | 397 kts | 303° |
| 2026-05-05 01:42 | 33.04925 | -117.70700 | 17268 ft | 400 kts | 302° |
| 2026-05-05 01:42 | 33.06651 | -117.73327 | 17998 ft | 405 kts | 307° |
| 2026-05-05 01:42 | 33.08704 | -117.75704 | 18593 ft | 417 kts | 314° |
| 2026-05-05 01:42 | 33.10968 | -117.77896 | 19252 ft | 421 kts | 316° |
| 2026-05-05 01:43 | 33.13268 | -117.80059 | 19987 ft | 422 kts | 315° |
| 2026-05-05 01:43 | 33.15541 | -117.82273 | 20698 ft | 422 kts | 313° |
| 2026-05-05 01:43 | 33.17791 | -117.84543 | 21357 ft | 425 kts | 312° |
| 2026-05-05 01:43 | 33.20015 | -117.86817 | 22005 ft | 428 kts | 312° |
| 2026-05-05 01:44 | 33.22310 | -117.89105 | 22645 ft | 432 kts | 313° |
| 2026-05-05 01:44 | 33.24654 | -117.91388 | 23288 ft | 436 kts | 312° |
| 2026-05-05 01:44 | 33.27016 | -117.93673 | 23883 ft | 439 kts | 312° |
| 2026-05-05 01:44 | 33.29399 | -117.95982 | 24354 ft | 443 kts | 311° |
| 2026-05-05 01:45 | 33.31806 | -117.98324 | 24823 ft | 448 kts | 311° |
| 2026-05-05 01:45 | 33.34234 | -118.00693 | 25262 ft | 452 kts | 311° |
| 2026-05-05 01:45 | 33.36680 | -118.03086 | 25721 ft | 457 kts | 311° |
| 2026-05-05 01:45 | 33.39151 | -118.05506 | 26200 ft | 461 kts | 311° |
| 2026-05-05 01:46 | 33.41644 | -118.07951 | 26648 ft | 465 kts | 311° |
| 2026-05-05 01:46 | 33.44156 | -118.10415 | 27112 ft | 469 kts | 310° |
| 2026-05-05 01:46 | 33.46689 | -118.12899 | 27582 ft | 472 kts | 310° |
| 2026-05-05 01:46 | 33.49243 | -118.15408 | 28023 ft | 476 kts | 310° |
| 2026-05-05 01:47 | 33.51782 | -118.17902 | 28447 ft | 480 kts | 310° |
| 2026-05-05 01:47 | 33.54373 | -118.20451 | 28867 ft | 483 kts | 310° |
| 2026-05-05 01:47 | 33.56988 | -118.23014 | 29262 ft | 488 kts | 311° |
| 2026-05-05 01:47 | 33.59888 | -118.25278 | 29714 ft | 509 kts | 323° |
| 2026-05-05 01:48 | 33.63157 | -118.27008 | 30237 ft | 515 kts | 327° |
| 2026-05-05 01:48 | 33.66482 | -118.28634 | 30682 ft | 515 kts | 327° |
| 2026-05-05 01:48 | 33.69767 | -118.30315 | 31105 ft | 512 kts | 325° |
| 2026-05-05 01:48 | 33.73010 | -118.32076 | 31534 ft | 511 kts | 324° |
| 2026-05-05 01:49 | 33.76232 | -118.33870 | 31969 ft | 511 kts | 324° |
| 2026-05-05 01:49 | 33.79479 | -118.35615 | 32432 ft | 512 kts | 326° |
| 2026-05-05 01:49 | 33.82773 | -118.37267 | 32919 ft | 513 kts | 327° |
| 2026-05-05 01:49 | 33.86081 | -118.38888 | 33259 ft | 514 kts | 327° |
| 2026-05-05 01:50 | 33.89387 | -118.40517 | 33619 ft | 514 kts | 327° |
| 2026-05-05 01:50 | 33.92693 | -118.42171 | 34002 ft | 514 kts | 326° |
| 2026-05-05 01:50 | 33.99319 | -118.45519 | 34053 ft | 517 kts | 328° |
| 2026-05-05 01:51 | 34.02806 | -118.46770 | 34044 ft | 530 kts | 341° |
| 2026-05-05 01:51 | 34.06470 | -118.47401 | 34058 ft | 533 kts | 345° |
| 2026-05-05 01:51 | 34.13828 | -118.48268 | 34019 ft | 535 kts | 346° |
| 2026-05-05 01:52 | 34.21232 | -118.49207 | 34052 ft | 534 kts | 345° |
| 2026-05-05 01:52 | 34.28617 | -118.50309 | 34026 ft | 534 kts | 344° |
| 2026-05-05 01:53 | 34.36002 | -118.51469 | 34031 ft | 535 kts | 344° |
| 2026-05-05 01:53 | 34.43381 | -118.52623 | 34037 ft | 535 kts | 344° |
| 2026-05-05 01:54 | 34.50761 | -118.53768 | 33976 ft | 535 kts | 344° |
| 2026-05-05 01:54 | 34.58136 | -118.54909 | 33979 ft | 534 kts | 344° |
| 2026-05-05 01:55 | 34.65463 | -118.56046 | 33991 ft | 533 kts | 345° |
| 2026-05-05 01:55 | 34.72825 | -118.57193 | 33972 ft | 532 kts | 345° |
| 2026-05-05 01:56 | 34.80159 | -118.58335 | 33965 ft | 531 kts | 344° |
| 2026-05-05 01:56 | 34.87496 | -118.59483 | 33974 ft | 530 kts | 344° |
| 2026-05-05 01:57 | 34.94813 | -118.60629 | 33989 ft | 531 kts | 344° |
| 2026-05-05 01:57 | 35.01858 | -118.62550 | 34004 ft | 502 kts | 324° |
| 2026-05-05 01:58 | 35.04721 | -118.64803 | 34004 ft | 478 kts | 307° |
| 2026-05-05 01:58 | 35.07178 | -118.67541 | 34048 ft | 481 kts | 308° |
| 2026-05-05 01:58 | 35.12333 | -118.72929 | 33984 ft | 490 kts | 310° |
| 2026-05-05 01:59 | 35.17605 | -118.78227 | 33958 ft | 490 kts | 311° |
| 2026-05-05 01:59 | 35.22833 | -118.83497 | 33958 ft | 489 kts | 310° |
| 2026-05-05 02:00 | 35.28072 | -118.88819 | 33976 ft | 488 kts | 311° |
| 2026-05-05 02:00 | 35.33292 | -118.94143 | 33967 ft | 488 kts | 311° |
| 2026-05-05 02:01 | 35.38501 | -118.99465 | 33977 ft | 487 kts | 311° |
| 2026-05-05 02:01 | 35.43708 | -119.04788 | 33981 ft | 487 kts | 312° |
| 2026-05-05 02:02 | 35.49052 | -119.09924 | 33963 ft | 497 kts | 323° |
| 2026-05-05 02:02 | 35.52291 | -119.11550 | 33987 ft | 508 kts | 336° |
| 2026-05-05 02:02 | 35.55691 | -119.12783 | 33982 ft | 510 kts | 337° |
| 2026-05-05 02:03 | 35.62492 | -119.15135 | 34012 ft | 511 kts | 337° |
| 2026-05-05 02:03 | 35.69315 | -119.17594 | 34003 ft | 510 kts | 336° |
| 2026-05-05 02:04 | 35.76096 | -119.20148 | 33999 ft | 509 kts | 336° |
| 2026-05-05 02:04 | 35.82854 | -119.22736 | 34004 ft | 508 kts | 336° |
| 2026-05-05 02:05 | 35.89592 | -119.25322 | 34022 ft | 507 kts | 337° |
| 2026-05-05 02:05 | 35.96312 | -119.27900 | 33995 ft | 504 kts | 337° |
| 2026-05-05 02:06 | 36.02967 | -119.30446 | 33993 ft | 502 kts | 338° |
| 2026-05-05 02:06 | 36.09619 | -119.32998 | 33988 ft | 499 kts | 338° |
| 2026-05-05 02:07 | 36.16235 | -119.35543 | 33994 ft | 497 kts | 338° |
| 2026-05-05 02:07 | 36.22836 | -119.38089 | 34012 ft | 496 kts | 338° |
| 2026-05-05 02:08 | 36.29433 | -119.40637 | 33997 ft | 496 kts | 338° |
| 2026-05-05 02:08 | 36.36024 | -119.43186 | 34001 ft | 496 kts | 338° |
| 2026-05-05 02:09 | 36.42612 | -119.45740 | 34018 ft | 496 kts | 340° |
| 2026-05-05 02:09 | 36.49199 | -119.48296 | 33999 ft | 495 kts | 340° |
| 2026-05-05 02:10 | 36.55776 | -119.50852 | 34003 ft | 495 kts | 340° |
| 2026-05-05 02:10 | 36.62345 | -119.53411 | 34006 ft | 493 kts | 340° |
| 2026-05-05 02:11 | 36.68891 | -119.55969 | 34015 ft | 492 kts | 341° |
| 2026-05-05 02:11 | 36.75416 | -119.58518 | 34006 ft | 491 kts | 341° |
| 2026-05-05 02:12 | 36.85123 | -119.62318 | 34008 ft | 489 kts | 341° |
| 2026-05-05 02:13 | 36.91606 | -119.64864 | 34010 ft | 488 kts | 341° |
| 2026-05-05 02:13 | 36.98092 | -119.67416 | 34011 ft | 489 kts | 341° |
| 2026-05-05 02:14 | 37.04585 | -119.69975 | 34008 ft | 489 kts | 341° |
| 2026-05-05 02:14 | 37.11076 | -119.72537 | 34006 ft | 489 kts | 341° |
| 2026-05-05 02:15 | 37.17569 | -119.75105 | 34010 ft | 489 kts | 342° |
| 2026-05-05 02:15 | 37.24070 | -119.77681 | 34006 ft | 490 kts | 342° |
| 2026-05-05 02:16 | 37.30573 | -119.80262 | 34010 ft | 490 kts | 342° |
| 2026-05-05 02:16 | 37.37082 | -119.82851 | 34021 ft | 491 kts | 342° |
| 2026-05-05 02:17 | 37.43583 | -119.85443 | 34018 ft | 490 kts | 342° |
| 2026-05-05 02:17 | 37.50076 | -119.88032 | 34018 ft | 489 kts | 342° |
| 2026-05-05 02:18 | 37.56555 | -119.90622 | 34016 ft | 488 kts | 343° |
| 2026-05-05 02:18 | 37.62979 | -119.93194 | 34022 ft | 487 kts | 343° |
| 2026-05-05 02:19 | 37.69423 | -119.95780 | 34026 ft | 485 kts | 343° |
| 2026-05-05 02:19 | 37.75854 | -119.98366 | 34019 ft | 484 kts | 343° |
| 2026-05-05 02:20 | 37.82274 | -120.00951 | 34035 ft | 484 kts | 343° |
| 2026-05-05 02:20 | 37.88688 | -120.03538 | 34036 ft | 484 kts | 343° |
| 2026-05-05 02:21 | 37.95101 | -120.06131 | 34019 ft | 483 kts | 343° |
| 2026-05-05 02:21 | 38.01507 | -120.08725 | 34027 ft | 483 kts | 343° |
| 2026-05-05 02:22 | 38.07913 | -120.11324 | 34027 ft | 483 kts | 343° |
| 2026-05-05 02:22 | 38.14288 | -120.13918 | 34019 ft | 480 kts | 344° |
| 2026-05-05 02:23 | 38.20581 | -120.16481 | 34025 ft | 477 kts | 344° |
| 2026-05-05 02:23 | 38.26879 | -120.19048 | 34022 ft | 474 kts | 344° |
| 2026-05-05 02:24 | 38.33142 | -120.21609 | 34031 ft | 471 kts | 345° |
| 2026-05-05 02:24 | 38.39370 | -120.24158 | 34034 ft | 469 kts | 345° |
| 2026-05-05 02:25 | 38.45586 | -120.26707 | 34033 ft | 469 kts | 345° |
| 2026-05-05 02:25 | 38.51789 | -120.29255 | 34027 ft | 467 kts | 346° |
| 2026-05-05 02:26 | 38.57966 | -120.31798 | 34028 ft | 465 kts | 346° |
| 2026-05-05 02:26 | 38.64118 | -120.34335 | 34029 ft | 464 kts | 346° |
| 2026-05-05 02:27 | 38.70234 | -120.36862 | 34034 ft | 464 kts | 346° |
| 2026-05-05 02:27 | 38.76374 | -120.39402 | 34035 ft | 464 kts | 346° |
| 2026-05-05 02:28 | 38.82521 | -120.41951 | 34037 ft | 465 kts | 346° |
| 2026-05-05 02:28 | 38.88674 | -120.44507 | 34037 ft | 465 kts | 347° |
| 2026-05-05 02:29 | 38.93792 | -120.46635 | 34034 ft | 465 kts | 347° |
| 2026-05-05 02:29 | 38.99950 | -120.49202 | 34031 ft | 465 kts | 347° |
| 2026-05-05 02:30 | 39.06099 | -120.51770 | 34043 ft | 464 kts | 347° |
| 2026-05-05 02:30 | 39.12246 | -120.54341 | 34054 ft | 464 kts | 347° |
| 2026-05-05 02:31 | 39.18393 | -120.56918 | 34039 ft | 464 kts | 347° |
| 2026-05-05 02:31 | 39.24542 | -120.59499 | 34057 ft | 463 kts | 347° |
| 2026-05-05 02:32 | 39.30670 | -120.62077 | 34063 ft | 463 kts | 347° |
| 2026-05-05 02:32 | 39.36788 | -120.64655 | 34029 ft | 462 kts | 347° |
| 2026-05-05 02:33 | 39.42857 | -120.67216 | 34017 ft | 461 kts | 347° |
| 2026-05-05 02:33 | 39.48962 | -120.69798 | 34019 ft | 461 kts | 347° |
| 2026-05-05 02:34 | 39.55062 | -120.72382 | 33998 ft | 462 kts | 346° |
| 2026-05-05 02:34 | 39.61184 | -120.74980 | 34009 ft | 463 kts | 346° |
| 2026-05-05 02:35 | 39.67307 | -120.77585 | 34011 ft | 463 kts | 346° |
| 2026-05-05 02:35 | 39.73444 | -120.80199 | 34005 ft | 464 kts | 346° |
| 2026-05-05 02:36 | 39.79550 | -120.82806 | 34000 ft | 465 kts | 346° |
| 2026-05-05 02:36 | 39.85712 | -120.85443 | 33992 ft | 466 kts | 346° |
| 2026-05-05 02:37 | 39.91857 | -120.88078 | 33991 ft | 464 kts | 347° |
| 2026-05-05 02:37 | 39.97999 | -120.90714 | 33970 ft | 463 kts | 347° |
| 2026-05-05 02:38 | 40.04113 | -120.93347 | 33966 ft | 462 kts | 347° |
| 2026-05-05 02:38 | 40.10208 | -120.95971 | 33967 ft | 460 kts | 347° |
| 2026-05-05 02:39 | 40.16298 | -120.98598 | 33958 ft | 461 kts | 347° |
| 2026-05-05 02:39 | 40.22391 | -121.01234 | 33923 ft | 461 kts | 347° |
| 2026-05-05 02:40 | 40.28480 | -121.03875 | 33945 ft | 461 kts | 347° |
| 2026-05-05 02:40 | 40.34539 | -121.06506 | 33938 ft | 461 kts | 347° |
| 2026-05-05 02:41 | 40.40632 | -121.09157 | 33948 ft | 461 kts | 347° |
| 2026-05-05 02:41 | 40.46734 | -121.11795 | 33938 ft | 462 kts | 348° |
| 2026-05-05 02:42 | 40.52862 | -121.14314 | 33935 ft | 461 kts | 348° |
| 2026-05-05 02:42 | 40.59000 | -121.16813 | 33915 ft | 461 kts | 349° |
| 2026-05-05 02:43 | 40.65132 | -121.19326 | 33927 ft | 462 kts | 348° |
| 2026-05-05 02:43 | 40.71259 | -121.21855 | 33915 ft | 462 kts | 348° |
| 2026-05-05 02:44 | 40.77383 | -121.24392 | 33907 ft | 460 kts | 349° |
| 2026-05-05 02:44 | 40.83434 | -121.26903 | 33915 ft | 459 kts | 349° |
| 2026-05-05 02:45 | 40.89521 | -121.29432 | 33900 ft | 458 kts | 349° |
| 2026-05-05 02:45 | 40.95608 | -121.31966 | 33917 ft | 458 kts | 349° |
| 2026-05-05 02:46 | 41.01696 | -121.34504 | 33915 ft | 459 kts | 349° |
| 2026-05-05 02:46 | 41.07744 | -121.37031 | 33870 ft | 459 kts | 348° |
| 2026-05-05 02:47 | 41.13822 | -121.39576 | 33908 ft | 458 kts | 348° |
| 2026-05-05 02:47 | 41.19897 | -121.42125 | 33927 ft | 458 kts | 348° |
| 2026-05-05 02:48 | 41.25976 | -121.44681 | 33912 ft | 458 kts | 348° |
| 2026-05-05 02:48 | 41.32051 | -121.47242 | 33926 ft | 459 kts | 348° |
| 2026-05-05 02:49 | 41.38141 | -121.49809 | 33927 ft | 459 kts | 348° |
| 2026-05-05 02:49 | 41.44230 | -121.52384 | 33922 ft | 459 kts | 348° |
| 2026-05-05 02:50 | 41.50317 | -121.54963 | 33889 ft | 459 kts | 348° |
| 2026-05-05 02:50 | 41.56395 | -121.57544 | 33888 ft | 458 kts | 348° |
| 2026-05-05 02:51 | 41.62480 | -121.60133 | 33879 ft | 458 kts | 348° |
| 2026-05-05 02:51 | 41.68558 | -121.62724 | 33862 ft | 458 kts | 348° |
| 2026-05-05 02:52 | 41.74629 | -121.65316 | 33872 ft | 458 kts | 348° |
| 2026-05-05 02:52 | 41.80698 | -121.67913 | 33879 ft | 458 kts | 348° |
| 2026-05-05 02:53 | 41.86729 | -121.70498 | 33879 ft | 458 kts | 348° |
| 2026-05-05 02:53 | 41.92790 | -121.73103 | 33881 ft | 457 kts | 348° |
| 2026-05-05 02:54 | 41.98849 | -121.75712 | 33878 ft | 457 kts | 348° |
| 2026-05-05 02:54 | 42.04903 | -121.78323 | 33887 ft | 457 kts | 348° |
| 2026-05-05 02:55 | 42.10960 | -121.80940 | 33889 ft | 457 kts | 348° |
| 2026-05-05 02:55 | 42.17024 | -121.83566 | 33888 ft | 458 kts | 348° |
| 2026-05-05 02:56 | 42.23086 | -121.86196 | 33844 ft | 458 kts | 348° |
| 2026-05-05 02:56 | 42.29153 | -121.88835 | 33811 ft | 458 kts | 348° |
| 2026-05-05 02:57 | 42.35222 | -121.91480 | 33836 ft | 458 kts | 348° |
| 2026-05-05 02:57 | 42.41284 | -121.94126 | 33836 ft | 458 kts | 348° |
| 2026-05-05 02:58 | 42.47346 | -121.96779 | 33830 ft | 457 kts | 348° |
| 2026-05-05 02:58 | 42.53394 | -121.99431 | 33839 ft | 456 kts | 348° |
| 2026-05-05 02:59 | 42.59430 | -122.02082 | 33850 ft | 456 kts | 348° |
| 2026-05-05 02:59 | 42.65469 | -122.04740 | 33832 ft | 456 kts | 348° |
| 2026-05-05 03:00 | 42.71495 | -122.07399 | 33847 ft | 455 kts | 348° |
| 2026-05-05 03:00 | 42.77515 | -122.10058 | 33867 ft | 455 kts | 348° |
| 2026-05-05 03:01 | 42.83536 | -122.12726 | 33866 ft | 455 kts | 348° |
| 2026-05-05 03:01 | 42.89510 | -122.15379 | 33864 ft | 454 kts | 348° |
| 2026-05-05 03:02 | 42.95508 | -122.18094 | 33868 ft | 454 kts | 347° |
| 2026-05-05 03:02 | 43.01480 | -122.20906 | 33866 ft | 454 kts | 347° |
| 2026-05-05 03:03 | 43.07443 | -122.23725 | 33873 ft | 453 kts | 347° |
| 2026-05-05 03:03 | 43.13404 | -122.26538 | 33879 ft | 453 kts | 347° |
| 2026-05-05 03:04 | 43.19377 | -122.29355 | 33891 ft | 454 kts | 347° |
| 2026-05-05 03:04 | 43.25351 | -122.32181 | 33905 ft | 454 kts | 347° |
| 2026-05-05 03:05 | 43.31284 | -122.34992 | 33895 ft | 454 kts | 347° |
| 2026-05-05 03:05 | 43.37259 | -122.37831 | 33908 ft | 454 kts | 347° |
| 2026-05-05 03:06 | 43.43237 | -122.40673 | 33907 ft | 454 kts | 346° |
| 2026-05-05 03:06 | 43.49186 | -122.43525 | 33934 ft | 451 kts | 347° |
| 2026-05-05 03:07 | 43.55122 | -122.46351 | 33941 ft | 452 kts | 347° |
| 2026-05-05 03:07 | 43.61060 | -122.49192 | 33933 ft | 452 kts | 347° |
| 2026-05-05 03:08 | 43.66981 | -122.52042 | 33936 ft | 443 kts | 347° |
| 2026-05-05 03:08 | 43.69850 | -122.53433 | 33935 ft | 431 kts | 347° |
| 2026-05-05 03:08 | 43.72638 | -122.54784 | 33801 ft | 420 kts | 347° |
| 2026-05-05 03:08 | 43.75375 | -122.56105 | 33469 ft | 413 kts | 347° |
| 2026-05-05 03:09 | 43.78075 | -122.57406 | 33056 ft | 409 kts | 347° |
| 2026-05-05 03:09 | 43.80746 | -122.58694 | 32620 ft | 405 kts | 347° |
| 2026-05-05 03:09 | 43.83399 | -122.59973 | 32174 ft | 402 kts | 347° |
| 2026-05-05 03:09 | 43.86004 | -122.61233 | 31735 ft | 400 kts | 346° |
| 2026-05-05 03:10 | 43.88619 | -122.62496 | 31306 ft | 397 kts | 346° |
| 2026-05-05 03:10 | 43.91215 | -122.63753 | 30863 ft | 394 kts | 346° |
| 2026-05-05 03:10 | 43.93796 | -122.65006 | 30449 ft | 391 kts | 346° |
| 2026-05-05 03:10 | 43.96355 | -122.66250 | 30022 ft | 389 kts | 346° |
| 2026-05-05 03:11 | 43.98901 | -122.67487 | 29503 ft | 387 kts | 346° |
| 2026-05-05 03:11 | 44.01434 | -122.68719 | 29042 ft | 384 kts | 346° |
| 2026-05-05 03:11 | 44.03939 | -122.69939 | 28604 ft | 380 kts | 345° |
| 2026-05-05 03:11 | 44.06425 | -122.71152 | 28185 ft | 377 kts | 345° |
| 2026-05-05 03:12 | 44.08896 | -122.72357 | 27753 ft | 375 kts | 345° |
| 2026-05-05 03:12 | 44.11351 | -122.73555 | 27319 ft | 372 kts | 345° |
| 2026-05-05 03:12 | 44.13786 | -122.74732 | 26907 ft | 367 kts | 347° |
| 2026-05-05 03:12 | 44.16263 | -122.75319 | 26463 ft | 357 kts | 4° |
| 2026-05-05 03:13 | 44.18709 | -122.75088 | 26081 ft | 351 kts | 7° |
| 2026-05-05 03:13 | 44.21137 | -122.74803 | 25663 ft | 349 kts | 7° |
| 2026-05-05 03:13 | 44.23554 | -122.74529 | 25267 ft | 348 kts | 6° |
| 2026-05-05 03:13 | 44.25965 | -122.74267 | 24868 ft | 347 kts | 6° |
| 2026-05-05 03:14 | 44.28368 | -122.74016 | 24459 ft | 346 kts | 6° |
| 2026-05-05 03:14 | 44.30773 | -122.73770 | 24061 ft | 346 kts | 6° |
| 2026-05-05 03:14 | 44.33172 | -122.73529 | 23639 ft | 346 kts | 6° |
| 2026-05-05 03:14 | 44.35574 | -122.73290 | 23197 ft | 345 kts | 5° |
| 2026-05-05 03:15 | 44.37932 | -122.73057 | 22762 ft | 344 kts | 5° |
| 2026-05-05 03:15 | 44.40312 | -122.72821 | 22350 ft | 342 kts | 5° |
| 2026-05-05 03:15 | 44.42689 | -122.72586 | 21933 ft | 341 kts | 5° |
| 2026-05-05 03:15 | 44.45048 | -122.72352 | 21542 ft | 339 kts | 5° |
| 2026-05-05 03:16 | 44.47400 | -122.72119 | 21141 ft | 338 kts | 5° |
| 2026-05-05 03:16 | 44.49746 | -122.71886 | 20751 ft | 337 kts | 5° |
| 2026-05-05 03:16 | 44.52078 | -122.71655 | 20355 ft | 336 kts | 5° |
| 2026-05-05 03:16 | 44.54409 | -122.71423 | 19958 ft | 335 kts | 5° |
| 2026-05-05 03:17 | 44.56736 | -122.71192 | 19569 ft | 335 kts | 5° |
| 2026-05-05 03:17 | 44.59060 | -122.70961 | 19176 ft | 335 kts | 5° |
| 2026-05-05 03:17 | 44.61387 | -122.70728 | 18774 ft | 335 kts | 5° |
| 2026-05-05 03:17 | 44.63710 | -122.70494 | 18376 ft | 335 kts | 5° |
| 2026-05-05 03:18 | 44.66038 | -122.70260 | 17934 ft | 335 kts | 5° |
| 2026-05-05 03:18 | 44.68366 | -122.70027 | 17514 ft | 335 kts | 5° |
| 2026-05-05 03:18 | 44.69909 | -122.69872 | 17270 ft | 334 kts | 5° |
| 2026-05-05 03:18 | 44.72220 | -122.69639 | 16899 ft | 332 kts | 5° |
| 2026-05-05 03:19 | 44.77560 | -122.69101 | 15994 ft | 330 kts | 5° |
| 2026-05-05 03:19 | 44.79850 | -122.68870 | 15605 ft | 330 kts | 5° |
| 2026-05-05 03:19 | 44.81395 | -122.68715 | 15346 ft | 329 kts | 5° |
| 2026-05-05 03:20 | 44.83681 | -122.68485 | 14953 ft | 329 kts | 5° |
| 2026-05-05 03:20 | 44.85941 | -122.68258 | 14575 ft | 329 kts | 5° |
| 2026-05-05 03:20 | 44.88229 | -122.68027 | 14186 ft | 330 kts | 5° |
| 2026-05-05 03:20 | 44.90520 | -122.67796 | 13800 ft | 331 kts | 5° |
| 2026-05-05 03:21 | 44.92809 | -122.67565 | 13539 ft | 326 kts | 5° |
| 2026-05-05 03:21 | 44.95044 | -122.67340 | 13356 ft | 318 kts | 5° |
| 2026-05-05 03:21 | 44.97231 | -122.67120 | 13142 ft | 313 kts | 5° |
| 2026-05-05 03:21 | 44.99395 | -122.66901 | 12845 ft | 311 kts | 5° |
| 2026-05-05 03:22 | 45.01546 | -122.66674 | 12531 ft | 306 kts | 7° |
| 2026-05-05 03:22 | 45.03557 | -122.65863 | 12064 ft | 297 kts | 27° |
| 2026-05-05 03:22 | 45.05297 | -122.64410 | 11723 ft | 285 kts | 33° |
| 2026-05-05 03:22 | 45.06914 | -122.62874 | 11412 ft | 273 kts | 34° |
| 2026-05-05 03:23 | 45.08447 | -122.61381 | 11138 ft | 263 kts | 34° |
| 2026-05-05 03:23 | 45.09975 | -122.59873 | 10966 ft | 277 kts | 34° |
| 2026-05-05 03:23 | 45.11595 | -122.58268 | 10698 ft | 289 kts | 34° |
| 2026-05-05 03:23 | 45.13251 | -122.56624 | 10384 ft | 292 kts | 34° |
| 2026-05-05 03:24 | 45.14913 | -122.54972 | 10053 ft | 291 kts | 34° |
| 2026-05-05 03:24 | 45.16557 | -122.53336 | 9710 ft | 287 kts | 34° |
| 2026-05-05 03:24 | 45.18185 | -122.51711 | 9332 ft | 285 kts | 34° |
| 2026-05-05 03:24 | 45.19802 | -122.50085 | 8888 ft | 285 kts | 34° |
| 2026-05-05 03:25 | 45.21418 | -122.48451 | 8423 ft | 286 kts | 34° |
| 2026-05-05 03:25 | 45.23033 | -122.46807 | 7986 ft | 286 kts | 34° |
| 2026-05-05 03:25 | 45.24644 | -122.45150 | 7548 ft | 286 kts | 34° |
| 2026-05-05 03:25 | 45.26220 | -122.43497 | 7130 ft | 286 kts | 34° |
| 2026-05-05 03:26 | 45.27811 | -122.41803 | 6700 ft | 286 kts | 34° |
| 2026-05-05 03:26 | 45.29394 | -122.40088 | 6267 ft | 286 kts | 34° |
| 2026-05-05 03:26 | 45.30969 | -122.38357 | 5808 ft | 286 kts | 34° |
| 2026-05-05 03:26 | 45.32543 | -122.36632 | 5355 ft | 286 kts | 34° |
| 2026-05-05 03:27 | 45.34120 | -122.34919 | 4912 ft | 286 kts | 34° |
| 2026-05-05 03:27 | 45.35705 | -122.33218 | 4465 ft | 283 kts | 32° |
| 2026-05-05 03:27 | 45.37442 | -122.32022 | 3958 ft | 275 kts | 12° |
| 2026-05-05 03:27 | 45.39312 | -122.31545 | 3526 ft | 272 kts | 6° |
| 2026-05-05 03:28 | 45.41179 | -122.31300 | 3113 ft | 266 kts | 353° |
| 2026-05-05 03:28 | 45.42869 | -122.32009 | 3015 ft | 244 kts | 330° |
| 2026-05-05 03:28 | 45.44278 | -122.33196 | 2983 ft | 227 kts | 325° |
| 2026-05-05 03:28 | 45.45582 | -122.34384 | 2995 ft | 223 kts | 325° |
| 2026-05-05 03:29 | 45.46882 | -122.35572 | 2989 ft | 221 kts | 325° |
| 2026-05-05 03:29 | 45.48166 | -122.36758 | 2997 ft | 218 kts | 324° |
| 2026-05-05 03:29 | 45.49431 | -122.37928 | 2994 ft | 213 kts | 323° |
| 2026-05-05 03:29 | 45.50434 | -122.39301 | 3004 ft | 196 kts | 300° |
| 2026-05-05 03:30 | 45.51193 | -122.41005 | 2711 ft | 207 kts | 301° |
| 2026-05-05 03:30 | 45.51917 | -122.42709 | 2447 ft | 196 kts | 297° |
| 2026-05-05 03:30 | 45.52562 | -122.44340 | 2177 ft | 188 kts | 296° |
| 2026-05-05 03:30 | 45.53189 | -122.45945 | 1932 ft | 180 kts | 295° |
| 2026-05-05 03:31 | 45.53782 | -122.47463 | 1705 ft | 173 kts | 295° |
| 2026-05-05 03:31 | 45.54347 | -122.48910 | 1478 ft | 160 kts | 294° |
| 2026-05-05 03:31 | 45.54871 | -122.50251 | 1280 ft | 153 kts | 296° |
| 2026-05-05 03:31 | 45.55383 | -122.51562 | 1096 ft | 153 kts | 296° |
| 2026-05-05 03:32 | 45.55911 | -122.52919 | 915 ft | 158 kts | 295° |
| 2026-05-05 03:32 | 45.56444 | -122.54280 | 700 ft | 155 kts | 296° |
| 2026-05-05 03:32 | 45.56969 | -122.55620 | 496 ft | 153 kts | 297° |
| 2026-05-05 03:32 | 45.57488 | -122.56943 | 282 ft | 152 kts | 297° |
| 2026-05-05 03:33 | 45.57999 | -122.58242 | 105 ft | 147 kts | 296° |
| 2026-05-05 03:33 | 45.58459 | -122.59429 | 35 ft | 124 kts | 296° |
| 2026-05-05 03:33 | 45.58769 | -122.60231 | 31 ft | 61 kts | 299° |
| 2026-05-05 03:33 | 45.58868 | -122.60534 | 32 ft | 14 kts | 266° |
| 2026-05-05 03:34 | 45.58825 | -122.60635 | 32 ft | 8 kts | 225° |
| 2026-05-05 03:34 | 45.58812 | -122.60654 | 32 ft | 0 kts | 224° |
| 2026-05-05 03:34 | 45.58796 | -122.60676 | 32 ft | 9 kts | 224° |
| 2026-05-05 03:35 | 45.58748 | -122.60744 | 32 ft | 11 kts | 224° |
| 2026-05-05 03:35 | 45.58681 | -122.60838 | 32 ft | 14 kts | 225° |
| 2026-05-05 03:35 | 45.58612 | -122.60935 | 32 ft | 14 kts | 225° |
| 2026-05-05 03:35 | 45.58544 | -122.61033 | 32 ft | 14 kts | 225° |
| 2026-05-05 03:36 | 45.58476 | -122.61130 | 32 ft | 14 kts | 225° |
| 2026-05-05 03:36 | 45.58407 | -122.61228 | 32 ft | 14 kts | 225° |
| 2026-05-05 03:36 | 45.58339 | -122.61325 | 32 ft | 14 kts | 225° |
| 2026-05-05 03:36 | 45.58257 | -122.61316 | 32 ft | 14 kts | 135° |
| 2026-05-05 03:37 | 45.58188 | -122.61219 | 32 ft | 14 kts | 135° |
| 2026-05-05 03:37 | 45.58120 | -122.61121 | 32 ft | 14 kts | 135° |
| 2026-05-05 03:37 | 45.58051 | -122.61024 | 32 ft | 14 kts | 135° |
| 2026-05-05 03:37 | 45.57983 | -122.60925 | 32 ft | 14 kts | 127° |
| 2026-05-05 03:38 | 45.57954 | -122.60834 | 32 ft | 7 kts | 120° |
| 2026-05-05 03:38 | 45.57905 | -122.60816 | 32 ft | 8 kts | 179° |
| 2026-05-05 03:38 | 45.57874 | -122.60816 | 32 ft | 0 kts | 180° |
| 2026-05-05 03:40 | 45.57876 | -122.60816 | 32 ft | 2 kts | 180° |
| 2026-05-05 03:40 | 45.57882 | -122.60816 | 31 ft | 0 kts | 180° |